createdAt,value
2017-11-04T00:00:09.805Z,288.1
2017-11-04T00:01:10.531Z,310.1
2017-11-04T00:02:11.256Z,319.2
2017-11-04T00:03:11.973Z,339.4
2017-11-04T00:04:12.707Z,329.8
2017-11-04T00:05:13.461Z,313.3
2017-11-04T00:06:14.174Z,336.9
2017-11-04T00:07:14.995Z,355.1
2017-11-04T00:08:15.718Z,314.5
2017-11-04T00:09:16.481Z,314.6
2017-11-04T00:10:17.192Z,327.1
2017-11-04T00:11:17.981Z,346.2
2017-11-04T00:12:19.106Z,362.7
2017-11-04T00:13:19.918Z,359.1
2017-11-04T00:14:20.670Z,308.4
2017-11-04T00:15:21.380Z,334.8
2017-11-04T00:16:22.100Z,369.6
2017-11-04T00:17:22.923Z,344.2
2017-11-04T00:18:23.720Z,358.9
2017-11-04T00:19:24.441Z,344.8
2017-11-04T00:20:25.170Z,341.7
2017-11-04T00:21:25.891Z,359.1
2017-11-04T00:22:26.682Z,329.0
2017-11-04T00:23:27.383Z,302.1
2017-11-04T00:24:28.102Z,348.9
2017-11-04T00:25:28.890Z,313.9
2017-11-04T00:26:29.604Z,329.0
2017-11-04T00:27:30.431Z,354.1
2017-11-04T00:28:31.157Z,312.8
2017-11-04T00:29:31.885Z,325.7
2017-11-04T00:30:32.623Z,383.6
2017-11-04T00:31:33.381Z,367.7
2017-11-04T00:32:34.241Z,342.5
2017-11-04T00:33:34.960Z,347.8
2017-11-04T00:34:35.697Z,344.0
2017-11-04T00:35:36.452Z,342.1
2017-11-04T00:36:37.169Z,376.3
2017-11-04T00:37:38.190Z,334.0
2017-11-04T00:38:38.928Z,380.0
2017-11-04T00:39:39.650Z,345.3
2017-11-04T00:40:40.422Z,346.9
2017-11-04T00:41:41.200Z,365.5
2017-11-04T00:42:42.035Z,360.2
2017-11-04T00:43:42.800Z,362.3
2017-11-04T00:44:43.514Z,382.0
2017-11-04T00:45:44.274Z,369.0
2017-11-04T00:46:45.057Z,377.4
2017-11-04T00:47:45.736Z,363.2
2017-11-04T00:48:46.453Z,337.4
2017-11-04T00:49:47.260Z,369.4
2017-11-04T00:50:47.989Z,375.9
2017-11-04T00:51:48.742Z,354.3
2017-11-04T00:52:49.512Z,395.1
2017-11-04T00:53:50.230Z,333.7
2017-11-04T00:54:50.965Z,360.9
2017-11-04T00:55:51.741Z,378.4
2017-11-04T00:56:52.534Z,352.4
2017-11-04T00:57:53.614Z,376.8
2017-11-04T00:58:54.390Z,357.6
2017-11-04T00:59:55.126Z,373.5
2017-11-04T01:00:55.857Z,372.2
2017-11-04T01:01:56.613Z,400.7
2017-11-04T01:02:57.641Z,359.6
2017-11-04T01:03:58.362Z,354.9
2017-11-04T01:04:59.071Z,361.4
2017-11-04T01:05:59.854Z,347.5
2017-11-04T01:07:00.646Z,352.9
2017-11-04T01:08:01.424Z,408.7
2017-11-04T01:09:02.181Z,372.2
2017-11-04T01:10:02.904Z,411.5
2017-11-04T01:11:03.620Z,379.8
2017-11-04T01:12:04.341Z,391.0
2017-11-04T01:13:05.122Z,363.1
2017-11-04T01:14:05.926Z,396.3
2017-11-04T01:15:06.650Z,378.1
2017-11-04T01:16:07.370Z,369.0
2017-11-04T01:17:08.081Z,392.8
2017-11-04T01:18:09.491Z,393.2
2017-11-04T01:19:10.211Z,378.6
2017-11-04T01:20:10.933Z,400.0
2017-11-04T01:21:11.661Z,387.5
2017-11-04T01:22:12.397Z,397.9
2017-11-04T01:23:13.210Z,425.4
2017-11-04T01:24:13.942Z,416.9
2017-11-04T01:25:14.745Z,377.2
2017-11-04T01:26:15.471Z,450.2
2017-11-04T01:27:16.190Z,405.8
2017-11-04T01:28:16.970Z,405.2
2017-11-04T01:29:17.688Z,414.0
2017-11-04T01:30:18.417Z,455.1
2017-11-04T01:31:19.182Z,456.1
2017-11-04T01:32:19.916Z,405.2
2017-11-04T01:33:20.769Z,400.1
2017-11-04T01:34:21.551Z,380.8
2017-11-04T01:35:22.285Z,413.9
2017-11-04T01:36:23.065Z,426.0
2017-11-04T01:37:23.854Z,411.5
2017-11-04T01:38:24.643Z,389.5
2017-11-04T01:39:25.430Z,394.9
2017-11-04T01:40:26.176Z,417.7
2017-11-04T01:41:26.962Z,390.3
2017-11-04T01:42:27.737Z,412.5
2017-11-04T01:43:28.581Z,379.8
2017-11-04T01:44:29.310Z,433.3
2017-11-04T01:45:30.044Z,441.6
2017-11-04T01:46:30.766Z,440.3
2017-11-04T01:47:31.491Z,416.6
2017-11-04T01:48:32.222Z,408.3
2017-11-04T01:49:33.014Z,432.3
2017-11-04T01:50:33.850Z,412.9
2017-11-04T01:51:34.612Z,444.9
2017-11-04T01:52:35.416Z,412.6
2017-11-04T01:53:36.210Z,401.8
2017-11-04T01:54:37.011Z,464.6
2017-11-04T01:55:37.753Z,389.2
2017-11-04T01:56:38.522Z,434.0
2017-11-04T01:57:39.278Z,433.1
2017-11-04T01:58:40.000Z,424.3
2017-11-04T01:59:40.723Z,430.4
2017-11-04T02:00:41.530Z,417.6
2017-11-04T02:01:42.553Z,392.5
2017-11-04T02:02:43.374Z,392.1
2017-11-04T02:03:44.137Z,388.0
2017-11-04T02:04:44.900Z,419.3
2017-11-04T02:05:45.631Z,378.4
2017-11-04T02:06:46.751Z,413.7
2017-11-04T02:07:47.477Z,377.2
2017-11-04T02:08:48.290Z,410.0
2017-11-04T02:09:49.045Z,427.5
2017-11-04T02:10:49.795Z,398.0
2017-11-04T02:11:50.511Z,436.5
2017-11-04T02:12:51.231Z,393.5
2017-11-04T02:13:52.099Z,470.9
2017-11-04T02:14:52.852Z,415.5
2017-11-04T02:15:53.657Z,415.9
2017-11-04T02:16:54.451Z,433.1
2017-11-04T02:17:55.182Z,434.5
2017-11-04T02:18:56.080Z,399.9
2017-11-04T02:19:56.880Z,394.9
2017-11-04T02:20:57.602Z,469.1
2017-11-04T02:21:58.412Z,482.1
2017-11-04T02:22:59.195Z,441.8
2017-11-04T02:24:00.014Z,443.5
2017-11-04T02:25:00.741Z,419.4
2017-11-04T02:26:01.456Z,434.4
2017-11-04T02:27:02.176Z,432.1
2017-11-04T02:28:02.982Z,425.9
2017-11-04T02:29:03.779Z,458.3
2017-11-04T02:30:04.564Z,508.7
2017-11-04T02:31:05.298Z,519.2
2017-11-04T02:32:06.096Z,427.6
2017-11-04T02:33:06.829Z,490.4
2017-11-04T02:34:07.604Z,452.3
2017-11-04T02:35:08.333Z,456.8
2017-11-04T02:36:09.132Z,423.6
2017-11-04T02:37:09.830Z,462.3
2017-11-04T02:38:10.633Z,450.8
2017-11-04T02:39:11.740Z,470.8
2017-11-04T02:40:12.467Z,450.3
2017-11-04T02:41:13.271Z,451.2
2017-11-04T02:42:13.993Z,476.5
2017-11-04T02:43:14.716Z,425.7
2017-11-04T02:44:15.920Z,411.6
2017-11-04T02:45:16.644Z,464.0
2017-11-04T02:46:17.431Z,457.2
2017-11-04T02:47:18.162Z,394.1
2017-11-04T02:48:18.890Z,411.6
2017-11-04T02:49:19.623Z,421.8
2017-11-04T02:50:20.423Z,438.7
2017-11-04T02:51:21.156Z,447.2
2017-11-04T02:52:21.965Z,440.0
2017-11-04T02:53:22.680Z,434.3
2017-11-04T02:54:23.412Z,450.5
2017-11-04T02:55:24.200Z,426.7
2017-11-04T02:56:24.968Z,466.9
2017-11-04T02:57:25.693Z,488.4
2017-11-04T02:58:26.468Z,461.8
2017-11-04T02:59:27.267Z,443.6
2017-11-04T03:00:28.042Z,464.2
2017-11-04T03:01:28.764Z,470.4
2017-11-04T03:02:29.606Z,463.0
2017-11-04T03:03:30.381Z,453.9
2017-11-04T03:04:31.104Z,467.6
2017-11-04T03:05:31.902Z,462.3
2017-11-04T03:06:32.638Z,460.6
2017-11-04T03:07:33.751Z,467.9
2017-11-04T03:08:34.472Z,488.4
2017-11-04T03:09:35.197Z,461.5
2017-11-04T03:10:35.921Z,478.9
2017-11-04T03:11:36.659Z,474.5
2017-11-04T03:12:37.374Z,453.1
2017-11-04T03:13:38.182Z,448.2
2017-11-04T03:14:38.902Z,475.3
2017-11-04T03:15:39.627Z,441.5
2017-11-04T03:16:40.355Z,450.1
2017-11-04T03:17:41.132Z,471.0
2017-11-04T03:18:41.912Z,430.4
2017-11-04T03:19:42.702Z,445.7
2017-11-04T03:20:43.431Z,477.7
2017-11-04T03:21:44.163Z,465.3
2017-11-04T03:22:45.026Z,461.7
2017-11-04T03:23:45.745Z,438.7
2017-11-04T03:24:46.454Z,486.8
2017-11-04T03:25:47.183Z,457.6
2017-11-04T03:26:47.957Z,450.3
2017-11-04T03:27:48.675Z,468.1
2017-11-04T03:28:49.432Z,475.2
2017-11-04T03:29:50.153Z,486.5
2017-11-04T03:30:50.954Z,455.0
2017-11-04T03:31:51.726Z,479.2
2017-11-04T03:32:52.511Z,494.5
2017-11-04T03:33:53.239Z,477.3
2017-11-04T03:34:54.052Z,482.0
2017-11-04T03:35:54.865Z,455.4
2017-11-04T03:36:55.661Z,482.0
2017-11-04T03:37:56.382Z,472.1
2017-11-04T03:38:57.102Z,456.4
2017-11-04T03:39:57.823Z,466.0
2017-11-04T03:40:58.548Z,475.7
2017-11-04T03:41:59.648Z,451.6
2017-11-04T03:43:00.447Z,485.4
2017-11-04T03:44:01.173Z,488.7
2017-11-04T03:45:01.903Z,478.3
2017-11-04T03:46:02.635Z,469.5
2017-11-04T03:47:03.453Z,478.9
2017-11-04T03:48:04.246Z,470.6
2017-11-04T03:49:04.973Z,443.2
2017-11-04T03:50:05.774Z,460.9
2017-11-04T03:51:06.541Z,486.5
2017-11-04T03:52:07.341Z,462.5
2017-11-04T03:53:08.076Z,468.7
2017-11-04T03:54:08.851Z,463.4
2017-11-04T03:55:09.574Z,473.9
2017-11-04T03:56:10.401Z,451.4
2017-11-04T03:57:11.178Z,483.8
2017-11-04T03:58:11.910Z,471.2
2017-11-04T03:59:12.632Z,453.3
2017-11-04T04:00:13.369Z,469.3
2017-11-04T04:01:14.093Z,478.8
2017-11-04T04:02:14.916Z,477.6
2017-11-04T04:03:15.647Z,484.5
2017-11-04T04:04:16.432Z,473.0
2017-11-04T04:05:17.167Z,459.9
2017-11-04T04:06:17.892Z,481.2
2017-11-04T04:07:18.724Z,480.8
2017-11-04T04:08:19.509Z,471.2
2017-11-04T04:09:20.291Z,501.7
2017-11-04T04:10:21.021Z,505.9
2017-11-04T04:11:21.823Z,506.9
2017-11-04T04:12:22.654Z,504.7
2017-11-04T04:13:23.379Z,507.4
2017-11-04T04:14:24.098Z,506.0
2017-11-04T04:15:24.826Z,502.3
2017-11-04T04:16:25.552Z,491.0
2017-11-04T04:17:26.435Z,487.9
2017-11-04T04:18:27.198Z,490.4
2017-11-04T04:19:27.931Z,467.0
2017-11-04T04:20:28.724Z,463.8
2017-11-04T04:21:29.448Z,487.1
2017-11-04T04:22:30.518Z,480.8
2017-11-04T04:23:31.255Z,491.7
2017-11-04T04:24:31.972Z,500.3
2017-11-04T04:25:32.754Z,494.6
2017-11-04T04:26:33.480Z,509.8
2017-11-04T04:27:34.298Z,502.6
2017-11-04T04:28:35.029Z,519.5
2017-11-04T04:29:35.748Z,491.7
2017-11-04T04:30:36.490Z,487.4
2017-11-04T04:31:37.287Z,478.9
2017-11-04T04:32:38.063Z,512.0
2017-11-04T04:33:38.868Z,522.1
2017-11-04T04:34:39.599Z,452.8
2017-11-04T04:35:40.327Z,493.7
2017-11-04T04:36:41.050Z,491.4
2017-11-04T04:37:41.785Z,481.5
2017-11-04T04:38:42.606Z,471.4
2017-11-04T04:39:43.335Z,476.5
2017-11-04T04:40:44.077Z,495.2
2017-11-04T04:41:44.893Z,503.9
2017-11-04T04:42:45.628Z,530.2
2017-11-04T04:43:46.453Z,495.6
2017-11-04T04:44:47.227Z,485.0
2017-11-04T04:45:47.964Z,470.6
2017-11-04T04:46:48.688Z,494.1
2017-11-04T04:47:49.418Z,498.4
2017-11-04T04:48:50.267Z,480.1
2017-11-04T04:49:51.067Z,481.6
2017-11-04T04:50:51.798Z,470.3
2017-11-04T04:51:52.535Z,512.9
2017-11-04T04:52:53.288Z,488.4
2017-11-04T04:53:54.118Z,437.1
2017-11-04T04:54:54.869Z,486.8
2017-11-04T04:55:55.658Z,521.5
2017-11-04T04:56:56.379Z,525.7
2017-11-04T04:57:57.098Z,492.0
2017-11-04T04:58:58.140Z,540.0
2017-11-04T04:59:58.911Z,523.3
2017-11-04T05:00:59.698Z,530.8
2017-11-04T05:02:00.500Z,469.5
2017-11-04T05:03:01.298Z,510.6
2017-11-04T05:04:02.035Z,497.7
2017-11-04T05:05:02.809Z,444.7
2017-11-04T05:06:03.702Z,501.1
2017-11-04T05:07:04.427Z,465.6
2017-11-04T05:08:05.192Z,493.4
2017-11-04T05:09:05.926Z,478.5
2017-11-04T05:10:06.723Z,480.9
2017-11-04T05:11:07.506Z,478.3
2017-11-04T05:12:08.292Z,511.2
2017-11-04T05:13:09.020Z,549.0
2017-11-04T05:14:09.773Z,478.4
2017-11-04T05:15:10.494Z,482.8
2017-11-04T05:16:11.355Z,531.3
2017-11-04T05:17:12.159Z,516.7
2017-11-04T05:18:12.927Z,532.6
2017-11-04T05:19:13.693Z,432.8
2017-11-04T05:20:14.422Z,546.3
2017-11-04T05:21:15.225Z,509.7
2017-11-04T05:22:16.025Z,465.2
2017-11-04T05:23:16.896Z,476.7
2017-11-04T05:24:17.695Z,476.1
2017-11-04T05:25:18.428Z,468.3
2017-11-04T05:26:19.224Z,518.5
2017-11-04T05:27:19.944Z,497.5
2017-11-04T05:28:20.805Z,475.7
2017-11-04T05:29:21.533Z,501.1
2017-11-04T05:30:22.245Z,522.9
2017-11-04T05:31:22.982Z,513.3
2017-11-04T05:32:23.753Z,481.0
2017-11-04T05:33:24.583Z,507.0
2017-11-04T05:34:25.371Z,467.6
2017-11-04T05:35:26.101Z,498.1
2017-11-04T05:36:26.906Z,492.8
2017-11-04T05:37:27.711Z,490.2
2017-11-04T05:38:28.543Z,488.1
2017-11-04T05:39:29.325Z,482.9
2017-11-04T05:40:30.134Z,527.2
2017-11-04T05:41:30.935Z,509.3
2017-11-04T05:42:31.723Z,501.6
2017-11-04T05:43:32.625Z,525.7
2017-11-04T05:44:33.472Z,483.8
2017-11-04T05:45:34.183Z,510.2
2017-11-04T05:46:34.907Z,498.8
2017-11-04T05:47:35.632Z,524.5
2017-11-04T05:48:36.468Z,496.0
2017-11-04T05:49:37.244Z,486.3
2017-11-04T05:50:37.966Z,506.5
2017-11-04T05:51:38.743Z,486.3
2017-11-04T05:52:39.463Z,502.9
2017-11-04T05:53:40.597Z,457.2
2017-11-04T05:54:41.362Z,518.4
2017-11-04T05:55:42.084Z,579.8
2017-11-04T05:56:42.886Z,543.1
2017-11-04T05:57:43.659Z,530.4
2017-11-04T05:58:44.734Z,485.0
2017-11-04T05:59:45.474Z,469.6
2017-11-04T06:00:46.299Z,518.9
2017-11-04T06:01:47.041Z,499.0
2017-11-04T06:02:47.769Z,457.3
2017-11-04T06:03:48.663Z,484.8
2017-11-04T06:04:49.403Z,482.1
2017-11-04T06:05:50.163Z,532.7
2017-11-04T06:06:50.889Z,510.3
2017-11-04T06:07:51.699Z,482.3
2017-11-04T06:08:52.502Z,567.2
2017-11-04T06:09:53.223Z,537.0
2017-11-04T06:10:53.946Z,532.5
2017-11-04T06:11:54.777Z,477.1
2017-11-04T06:12:55.545Z,489.4
2017-11-04T06:13:56.355Z,496.0
2017-11-04T06:14:57.165Z,520.1
2017-11-04T06:15:57.962Z,489.0
2017-11-04T06:16:58.694Z,550.9
2017-11-04T06:17:59.863Z,547.2
2017-11-04T06:19:00.594Z,464.8
2017-11-04T06:20:01.386Z,523.8
2017-11-04T06:21:02.114Z,517.6
2017-11-04T06:22:02.912Z,503.9
2017-11-04T06:23:03.638Z,417.8
2017-11-04T06:24:04.429Z,486.9
2017-11-04T06:25:05.153Z,485.9
2017-11-04T06:26:05.879Z,503.6
2017-11-04T06:27:06.604Z,487.1
2017-11-04T06:28:07.335Z,477.1
2017-11-04T06:29:08.146Z,487.1
2017-11-04T06:30:08.916Z,474.3
2017-11-04T06:31:09.643Z,490.3
2017-11-04T06:32:10.374Z,545.7
2017-11-04T06:33:11.114Z,467.1
2017-11-04T06:34:11.840Z,504.0
2017-11-04T06:35:12.605Z,509.4
2017-11-04T06:36:13.345Z,449.1
2017-11-04T06:37:14.119Z,484.4
2017-11-04T06:38:14.920Z,461.7
2017-11-04T06:39:15.678Z,496.7
2017-11-04T06:40:16.505Z,495.8
2017-11-04T06:41:17.305Z,499.0
2017-11-04T06:42:18.113Z,516.8
2017-11-04T06:43:18.837Z,498.3
2017-11-04T06:44:19.580Z,495.7
2017-11-04T06:45:20.405Z,444.1
2017-11-04T06:46:21.203Z,476.9
2017-11-04T06:47:21.933Z,478.1
2017-11-04T06:48:22.676Z,473.4
2017-11-04T06:49:23.402Z,487.7
2017-11-04T06:50:24.477Z,499.6
2017-11-04T06:51:25.200Z,515.1
2017-11-04T06:52:25.985Z,477.5
2017-11-04T06:53:26.714Z,493.0
2017-11-04T06:54:27.445Z,568.7
2017-11-04T06:55:28.342Z,536.7
2017-11-04T06:56:29.058Z,567.5
2017-11-04T06:57:29.796Z,525.8
2017-11-04T06:58:30.523Z,529.1
2017-11-04T06:59:31.245Z,521.3
2017-11-04T07:00:32.136Z,490.2
2017-11-04T07:01:32.874Z,492.1
2017-11-04T07:02:33.592Z,518.1
2017-11-04T07:03:34.323Z,461.6
2017-11-04T07:04:35.062Z,462.9
2017-11-04T07:05:36.223Z,475.2
2017-11-04T07:06:36.971Z,426.6
2017-11-04T07:07:37.693Z,416.2
2017-11-04T07:08:38.422Z,442.9
2017-11-04T07:09:39.163Z,465.4
2017-11-04T07:10:39.955Z,465.2
2017-11-04T07:11:40.763Z,445.6
2017-11-04T07:12:41.505Z,525.4
2017-11-04T07:13:42.300Z,508.2
2017-11-04T07:14:43.032Z,481.3
2017-11-04T07:15:43.862Z,486.1
2017-11-04T07:16:44.592Z,507.0
2017-11-04T07:17:45.332Z,519.2
2017-11-04T07:18:46.052Z,528.3
2017-11-04T07:19:46.794Z,503.4
2017-11-04T07:20:47.626Z,560.2
2017-11-04T07:21:48.393Z,596.9
2017-11-04T07:22:49.212Z,509.7
2017-11-04T07:23:49.947Z,472.9
2017-11-04T07:24:50.701Z,537.1
2017-11-04T07:25:52.327Z,513.7
2017-11-04T07:26:53.013Z,582.1
2017-11-04T07:27:53.808Z,565.4
2017-11-04T07:28:54.543Z,524.6
2017-11-04T07:29:55.273Z,569.2
2017-11-04T07:30:56.065Z,496.6
2017-11-04T07:31:56.858Z,519.0
2017-11-04T07:32:57.588Z,517.0
2017-11-04T07:33:58.323Z,528.6
2017-11-04T07:34:59.063Z,534.2
2017-11-04T07:36:00.096Z,499.3
2017-11-04T07:37:00.862Z,495.4
2017-11-04T07:38:01.561Z,564.9
2017-11-04T07:39:02.292Z,494.4
2017-11-04T07:40:03.023Z,548.9
2017-11-04T07:41:03.931Z,547.6
2017-11-04T07:42:04.669Z,548.0
2017-11-04T07:43:05.406Z,525.6
2017-11-04T07:44:06.188Z,502.0
2017-11-04T07:45:06.926Z,529.5
2017-11-04T07:46:07.761Z,502.6
2017-11-04T07:47:08.536Z,491.8
2017-11-04T07:48:09.327Z,443.9
2017-11-04T07:49:10.101Z,434.6
2017-11-04T07:50:10.832Z,424.1
2017-11-04T07:51:11.563Z,424.4
2017-11-04T07:52:12.326Z,477.3
2017-11-04T07:53:13.056Z,560.0
2017-11-04T07:54:13.849Z,503.2
2017-11-04T07:55:14.584Z,499.2
2017-11-04T07:56:15.473Z,451.6
2017-11-04T07:57:16.256Z,497.9
2017-11-04T07:58:17.032Z,459.7
2017-11-04T07:59:17.755Z,492.4
2017-11-04T08:00:18.561Z,493.4
2017-11-04T08:01:19.463Z,470.6
2017-11-04T08:02:20.211Z,480.4
2017-11-04T08:03:20.992Z,380.2
2017-11-04T08:04:21.716Z,440.0
2017-11-04T08:05:22.443Z,442.0
2017-11-04T08:06:23.182Z,418.0
2017-11-04T08:07:23.918Z,481.4
2017-11-04T08:08:24.642Z,479.7
2017-11-04T08:09:25.382Z,420.3
2017-11-04T08:10:26.128Z,400.3
2017-11-04T08:11:26.913Z,413.6
2017-11-04T08:12:27.646Z,476.4
2017-11-04T08:13:28.393Z,504.4
2017-11-04T08:14:29.153Z,407.4
2017-11-04T08:15:29.878Z,475.9
2017-11-04T08:16:31.312Z,471.1
2017-11-04T08:17:32.104Z,485.6
2017-11-04T08:18:32.901Z,443.4
2017-11-04T08:19:33.632Z,490.7
2017-11-04T08:20:34.414Z,454.5
2017-11-04T08:21:35.192Z,417.6
2017-11-04T08:22:35.932Z,416.3
2017-11-04T08:23:36.672Z,415.3
2017-11-04T08:24:37.391Z,463.1
2017-11-04T08:25:38.126Z,464.0
2017-11-04T08:26:38.953Z,397.9
2017-11-04T08:27:39.707Z,400.3
2017-11-04T08:28:40.442Z,424.8
2017-11-04T08:29:41.232Z,432.8
2017-11-04T08:30:41.961Z,426.3
2017-11-04T08:31:42.882Z,369.6
2017-11-04T08:32:43.622Z,429.0
2017-11-04T08:33:44.360Z,416.8
2017-11-04T08:34:45.097Z,379.9
2017-11-04T08:35:45.837Z,339.7
2017-11-04T08:36:47.718Z,391.7
2017-11-04T08:37:48.501Z,365.7
2017-11-04T08:38:49.237Z,344.0
2017-11-04T08:39:50.042Z,378.8
2017-11-04T08:40:50.780Z,363.7
2017-11-04T08:41:51.562Z,380.1
2017-11-04T08:42:52.302Z,333.1
2017-11-04T08:43:53.033Z,303.7
2017-11-04T08:44:53.764Z,317.3
2017-11-04T08:45:54.498Z,345.6
2017-11-04T08:46:55.223Z,331.0
2017-11-04T08:47:56.055Z,312.6
2017-11-04T08:48:56.755Z,367.8
2017-11-04T08:49:57.559Z,355.6
2017-11-04T08:50:58.295Z,333.3
2017-11-04T08:51:59.192Z,367.0
2017-11-04T08:52:59.946Z,317.7
2017-11-04T08:54:00.734Z,312.3
2017-11-04T08:55:01.544Z,313.4
2017-11-04T08:56:02.241Z,281.0
2017-11-04T08:57:03.027Z,269.2
2017-11-04T08:58:03.762Z,263.2
2017-11-04T08:59:04.553Z,287.2
2017-11-04T09:00:05.372Z,290.8
2017-11-04T09:01:06.142Z,316.8
2017-11-04T09:02:06.932Z,286.0
2017-11-04T09:03:07.612Z,301.3
2017-11-04T09:04:08.341Z,261.4
2017-11-04T09:05:09.077Z,251.2
2017-11-04T09:06:09.821Z,245.2
2017-11-04T09:07:10.721Z,237.0
2017-11-04T09:08:11.456Z,226.5
2017-11-04T09:09:12.198Z,217.0
2017-11-04T09:10:12.994Z,222.1
2017-11-04T09:11:13.798Z,241.3
2017-11-04T09:12:14.904Z,245.5
2017-11-04T09:13:15.714Z,267.4
2017-11-04T09:14:16.526Z,279.2
2017-11-04T09:15:17.311Z,256.1
2017-11-04T09:16:18.043Z,269.1
2017-11-04T09:17:18.876Z,225.4
2017-11-04T09:18:19.670Z,236.0
2017-11-04T09:19:20.392Z,210.9
2017-11-04T09:20:21.132Z,215.9
2017-11-04T09:21:21.862Z,194.0
2017-11-04T09:22:22.682Z,187.0
2017-11-04T09:23:23.427Z,175.5
2017-11-04T09:24:24.187Z,171.7
2017-11-04T09:25:24.917Z,152.8
2017-11-04T09:26:25.703Z,146.2
2017-11-04T09:27:26.777Z,140.2
2017-11-04T09:28:27.620Z,150.9
2017-11-04T09:29:28.312Z,164.8
2017-11-04T09:30:29.050Z,167.5
2017-11-04T09:31:29.822Z,144.3
2017-11-04T09:32:30.546Z,147.9
2017-11-04T09:33:31.456Z,140.6
2017-11-04T09:34:32.267Z,153.6
2017-11-04T09:35:33.123Z,146.2
2017-11-04T09:36:33.867Z,141.5
2017-11-04T09:37:34.649Z,114.2
2017-11-04T09:38:35.399Z,116.2
2017-11-04T09:39:36.129Z,123.7
2017-11-04T09:40:36.856Z,101.0
2017-11-04T09:41:37.743Z,90.2
2017-11-04T09:42:38.528Z,85.9
2017-11-04T09:43:39.309Z,73.8
2017-11-04T09:44:40.037Z,85.7
2017-11-04T09:45:40.773Z,78.2
2017-11-04T09:46:41.613Z,74.5
2017-11-04T09:47:42.443Z,79.7
2017-11-04T09:48:43.232Z,81.2
2017-11-04T09:49:43.962Z,68.1
2017-11-04T09:50:44.691Z,68.6
2017-11-04T09:51:45.518Z,67.1
2017-11-04T09:52:46.321Z,61.4
2017-11-04T09:53:47.067Z,66.0
2017-11-04T09:54:47.866Z,65.8
2017-11-04T09:55:48.602Z,63.9
2017-11-04T09:56:49.392Z,62.9
2017-11-04T09:57:50.134Z,59.1
2017-11-04T09:58:50.942Z,55.8
2017-11-04T09:59:51.679Z,50.7
2017-11-04T10:00:52.473Z,55.4
2017-11-04T10:01:53.258Z,53.1
2017-11-04T10:02:54.067Z,50.2
2017-11-04T10:03:54.865Z,54.4
2017-11-04T10:04:55.603Z,48.3
2017-11-04T10:05:56.333Z,55.5
2017-11-04T10:06:57.164Z,50.8
2017-11-04T10:07:57.972Z,48.4
2017-11-04T10:08:58.716Z,48.7
2017-11-04T10:09:59.500Z,53.2
2017-11-04T10:11:00.228Z,50.7
2017-11-04T10:12:01.022Z,52.2
2017-11-04T10:13:01.759Z,53.9
2017-11-04T10:14:02.505Z,45.4
2017-11-04T10:15:03.308Z,46.6
2017-11-04T10:16:04.052Z,48.6
2017-11-04T10:17:04.854Z,47.4
2017-11-04T10:18:05.662Z,45.2
2017-11-04T10:19:06.413Z,46.7
2017-11-04T10:20:07.134Z,47.7
2017-11-04T10:21:07.980Z,48.7
2017-11-04T10:22:08.771Z,48.9
2017-11-04T10:23:09.508Z,46.5
2017-11-04T10:24:10.249Z,49.1
2017-11-04T10:25:11.053Z,47.1
2017-11-04T10:26:11.784Z,47.1
2017-11-04T10:27:12.929Z,43.4
2017-11-04T10:28:13.712Z,42.2
2017-11-04T10:29:14.449Z,40.6
2017-11-04T10:30:15.174Z,44.2
2017-11-04T10:31:15.973Z,41.8
2017-11-04T10:32:17.092Z,44.0
2017-11-04T10:33:17.833Z,43.6
2017-11-04T10:34:18.637Z,43.7
2017-11-04T10:35:19.433Z,40.5
2017-11-04T10:36:20.230Z,40.3
2017-11-04T10:37:21.392Z,45.9
2017-11-04T10:38:22.113Z,46.1
2017-11-04T10:39:22.862Z,45.8
2017-11-04T10:40:23.602Z,43.2
2017-11-04T10:41:24.403Z,43.4
2017-11-04T10:42:25.143Z,45.3
2017-11-04T10:43:25.950Z,38.2
2017-11-04T10:44:26.808Z,42.3
2017-11-04T10:45:27.654Z,41.1
2017-11-04T10:46:28.533Z,38.6
2017-11-04T10:47:29.543Z,41.9
2017-11-04T10:48:30.399Z,42.5
2017-11-04T10:49:31.242Z,42.5
2017-11-04T10:50:32.076Z,44.9
2017-11-04T10:51:32.954Z,43.3
2017-11-04T10:52:34.141Z,40.3
2017-11-04T10:53:35.022Z,38.6
2017-11-04T10:54:35.889Z,41.8
2017-11-04T10:55:36.682Z,42.4
2017-11-04T10:56:37.406Z,40.8
2017-11-04T10:57:38.492Z,43.4
2017-11-04T10:58:39.242Z,38.3
2017-11-04T10:59:39.982Z,48.8
2017-11-04T11:00:40.715Z,41.4
2017-11-04T11:01:41.532Z,49.7
2017-11-04T11:02:42.321Z,43.4
2017-11-04T11:03:43.053Z,44.4
2017-11-04T11:04:43.858Z,38.9
2017-11-04T11:05:44.586Z,42.5
2017-11-04T11:06:45.329Z,39.2
2017-11-04T11:07:46.181Z,42.0
2017-11-04T11:08:46.922Z,42.4
2017-11-04T11:09:47.642Z,38.4
2017-11-04T11:10:48.384Z,41.1
2017-11-04T11:11:49.194Z,37.7
2017-11-04T11:12:50.051Z,40.8
2017-11-04T11:13:50.792Z,38.2
2017-11-04T11:14:51.526Z,41.2
2017-11-04T11:15:52.331Z,39.1
2017-11-04T11:16:53.065Z,37.7
2017-11-04T11:17:54.273Z,39.0
2017-11-04T11:18:55.070Z,39.5
2017-11-04T11:19:55.859Z,39.9
2017-11-04T11:20:56.633Z,35.6
2017-11-04T11:21:57.404Z,36.2
2017-11-04T11:22:58.133Z,36.9
2017-11-04T11:23:58.941Z,37.5
2017-11-04T11:24:59.775Z,36.0
2017-11-04T11:26:00.541Z,35.1
2017-11-04T11:27:01.283Z,36.0
2017-11-04T11:28:02.420Z,35.5
2017-11-04T11:29:03.235Z,33.6
2017-11-04T11:30:04.043Z,34.2
2017-11-04T11:31:04.824Z,34.0
2017-11-04T11:32:05.621Z,33.7
2017-11-04T11:33:06.337Z,35.1
2017-11-04T11:34:07.074Z,39.6
2017-11-04T11:35:07.882Z,31.0
2017-11-04T11:36:08.622Z,34.9
2017-11-04T11:37:09.365Z,40.2
2017-11-04T11:38:10.260Z,39.5
2017-11-04T11:39:10.991Z,34.9
2017-11-04T11:40:11.722Z,38.0
2017-11-04T11:41:12.466Z,34.8
2017-11-04T11:42:13.261Z,36.6
2017-11-04T11:43:14.053Z,36.0
2017-11-04T11:44:14.822Z,34.4
2017-11-04T11:45:15.567Z,35.2
2017-11-04T11:46:16.351Z,34.4
2017-11-04T11:47:17.086Z,36.8
2017-11-04T11:48:17.862Z,33.0
2017-11-04T11:49:18.595Z,35.6
2017-11-04T11:50:19.376Z,34.6
2017-11-04T11:51:20.112Z,37.3
2017-11-04T11:52:20.879Z,32.6
2017-11-04T11:53:21.696Z,37.7
2017-11-04T11:54:22.431Z,33.1
2017-11-04T11:55:23.169Z,32.7
2017-11-04T11:56:23.907Z,33.8
2017-11-04T11:57:24.727Z,36.5
2017-11-04T11:58:25.614Z,33.8
2017-11-04T11:59:26.352Z,43.2
2017-11-04T12:00:27.164Z,35.1
2017-11-04T12:01:27.892Z,35.7
2017-11-04T12:02:28.632Z,34.5
2017-11-04T12:03:29.521Z,33.1
2017-11-04T12:04:30.254Z,34.4
2017-11-04T12:05:30.987Z,35.5
2017-11-04T12:06:31.803Z,36.9
2017-11-04T12:07:32.610Z,33.9
2017-11-04T12:08:33.451Z,40.2
2017-11-04T12:09:34.191Z,31.4
2017-11-04T12:10:36.091Z,38.0
2017-11-04T12:11:37.692Z,33.5
2017-11-04T12:12:38.775Z,38.5
2017-11-04T12:13:40.686Z,39.4
2017-11-04T12:14:42.456Z,37.8
2017-11-04T12:15:43.504Z,35.1
2017-11-04T12:16:44.245Z,41.1
2017-11-04T12:17:45.066Z,40.6
2017-11-04T12:18:45.812Z,39.1
2017-11-04T12:19:47.436Z,36.8
2017-11-04T12:20:48.353Z,43.9
2017-11-04T12:21:49.071Z,39.7
2017-11-04T12:22:49.856Z,43.1
2017-11-04T12:23:50.582Z,42.8
2017-11-04T12:24:51.314Z,42.3
2017-11-04T12:25:52.195Z,42.7
2017-11-04T12:26:53.012Z,42.1
2017-11-04T12:27:53.757Z,44.1
2017-11-04T12:28:54.442Z,42.1
2017-11-04T12:29:55.195Z,47.5
2017-11-04T12:30:56.043Z,47.3
2017-11-04T12:31:56.856Z,52.7
2017-11-04T12:32:57.603Z,53.2
2017-11-04T12:33:58.404Z,41.2
2017-11-04T12:34:59.145Z,47.9
2017-11-04T12:35:59.962Z,46.2
2017-11-04T12:37:00.777Z,45.6
2017-11-04T12:38:01.507Z,46.5
2017-11-04T12:39:02.297Z,45.5
2017-11-04T12:40:03.091Z,44.6
2017-11-04T12:41:03.878Z,48.1
2017-11-04T12:42:04.694Z,43.8
2017-11-04T12:43:05.504Z,42.8
2017-11-04T12:44:06.321Z,43.4
2017-11-04T12:45:07.056Z,45.5
2017-11-04T12:46:07.813Z,49.7
2017-11-04T12:47:08.576Z,47.3
2017-11-04T12:48:09.321Z,43.9
2017-11-04T12:49:10.052Z,45.9
2017-11-04T12:50:10.782Z,43.7
2017-11-04T12:51:11.576Z,51.5
2017-11-04T12:52:12.353Z,48.5
2017-11-04T12:53:13.082Z,51.4
2017-11-04T12:54:13.861Z,45.9
2017-11-04T12:55:14.642Z,49.2
2017-11-04T12:56:15.382Z,45.8
2017-11-04T12:57:16.167Z,51.6
2017-11-04T12:58:16.999Z,47.5
2017-11-04T12:59:17.832Z,58.6
2017-11-04T13:00:18.585Z,48.0
2017-11-04T13:01:19.418Z,44.4
2017-11-04T13:02:20.486Z,49.6
2017-11-04T13:03:21.272Z,45.4
2017-11-04T13:04:22.063Z,48.5
2017-11-04T13:05:22.871Z,46.4
2017-11-04T13:06:24.028Z,45.6
2017-11-04T13:07:24.703Z,42.4
2017-11-04T13:08:25.752Z,47.4
2017-11-04T13:09:26.509Z,48.3